Time,TemperatureF,DewpointF,PressureIn,WindDirection,WindDirectionDegrees,WindSpeedMPH,WindSpeedGustMPH,Humidity,HourlyPrecipIn,Conditions,Clouds,dailyrainin,SoftwareType,DateUTC
2013-02-14 00:01:00,17.0,14.0,-100.00,SSE,154,4.0,7.0,86,0.00,,,-99.99,,2013-02-14 07:01:00,
2013-02-14 00:11:00,17.0,13.0,-100.00,SE,124,6.0,8.0,85,0.00,,,-99.99,,2013-02-14 07:11:00,
2013-02-14 00:21:00,17.0,13.0,-100.00,SE,124,6.0,8.0,85,0.00,,,-99.99,,2013-02-14 07:21:00,
2013-02-14 00:31:00,17.0,14.0,-100.00,ESE,117,5.0,6.0,86,0.00,,,-99.99,,2013-02-14 07:31:00,
2013-02-14 00:41:00,17.0,14.0,-100.00,ESE,117,5.0,6.0,86,0.00,,,-99.99,,2013-02-14 07:41:00,
2013-02-14 00:52:00,17.0,13.0,-100.00,ESE,118,5.0,8.0,85,0.00,,,-99.99,,2013-02-14 07:52:00,
2013-02-14 01:01:00,18.0,14.0,-100.00,ESE,112,7.0,11.0,84,0.00,,,-99.99,,2013-02-14 08:01:00,
2013-02-14 01:11:00,18.0,14.0,-100.00,ESE,112,7.0,11.0,84,0.00,,,-99.99,,2013-02-14 08:11:00,
2013-02-14 01:21:00,17.0,13.0,-100.00,ESE,114,5.0,7.0,85,0.00,,,-99.99,,2013-02-14 08:21:00,
2013-02-14 01:31:00,17.0,14.0,-100.00,SE,124,4.0,5.0,86,0.00,,,-99.99,,2013-02-14 08:31:00,
2013-02-14 01:43:00,17.0,14.0,-100.00,SE,124,4.0,5.0,86,0.00,,,-99.99,,2013-02-14 08:43:00,
2013-02-14 01:52:00,16.0,13.0,-100.00,NNW,337,1.0,3.0,87,0.00,,,-99.99,,2013-02-14 08:52:00,
2013-02-14 02:01:00,15.0,13.0,-100.00,SE,124,1.0,3.0,90,0.00,,,-99.99,,2013-02-14 09:01:00,
2013-02-14 02:11:00,15.0,12.0,-100.00,North,-999,1.0,3.0,87,0.00,,,-99.99,,2013-02-14 09:11:00,
2013-02-14 02:21:00,15.0,12.0,-100.00,North,-999,1.0,3.0,87,0.00,,,-99.99,,2013-02-14 09:21:00,
2013-02-14 02:31:00,15.0,12.0,-100.00,SE,131,0.0,2.0,88,0.00,,,-99.99,,2013-02-14 09:31:00,
2013-02-14 02:41:00,15.0,12.0,-100.00,SE,131,0.0,2.0,88,0.00,,,-99.99,,2013-02-14 09:41:00,
2013-02-14 02:52:00,15.0,12.0,-100.00,ESE,115,2.0,3.0,87,0.00,,,-99.99,,2013-02-14 09:52:00,
2013-02-14 03:02:00,15.0,12.0,-100.00,ESE,115,1.0,3.0,89,0.00,,,-99.99,,2013-02-14 10:02:00,
2013-02-14 03:11:00,14.0,11.0,-100.00,SE,138,1.0,2.0,89,0.00,,,-99.99,,2013-02-14 10:11:00,
2013-02-14 03:21:00,14.0,11.0,-100.00,SE,138,1.0,2.0,89,0.00,,,-99.99,,2013-02-14 10:21:00,
2013-02-14 03:31:00,14.0,11.0,-100.00,WNW,297,1.0,2.0,88,0.00,,,-99.99,,2013-02-14 10:31:00,
2013-02-14 03:42:00,13.0,10.0,-100.00,NNW,337,2.0,3.0,89,0.00,,,-99.99,,2013-02-14 10:42:00,
2013-02-14 03:52:00,13.0,10.0,-100.00,NNW,337,2.0,3.0,89,0.00,,,-99.99,,2013-02-14 10:52:00,
2013-02-14 04:01:00,14.0,12.0,-100.00,NNW,337,1.0,2.0,90,0.00,,,-99.99,,2013-02-14 11:01:00,
2013-02-14 04:11:00,13.0,11.0,-100.00,West,279,1.0,3.0,91,0.00,,,-99.99,,2013-02-14 11:11:00,
2013-02-14 04:21:00,13.0,11.0,-100.00,West,279,1.0,3.0,91,0.00,,,-99.99,,2013-02-14 11:21:00,
2013-02-14 04:32:00,13.0,11.0,-100.00,NNW,337,0.0,0.0,91,0.00,,,-99.99,,2013-02-14 11:32:00,
2013-02-14 04:42:00,13.0,11.0,-100.00,NNW,337,0.0,0.0,91,0.00,,,-99.99,,2013-02-14 11:42:00,
2013-02-14 04:52:00,13.0,11.0,-100.00,NNW,337,0.0,0.0,91,0.00,,,-99.99,,2013-02-14 11:52:00,
2013-02-14 05:02:00,13.0,11.0,-100.00,WNW,292,0.0,1.0,91,0.00,,,-99.99,,2013-02-14 12:02:00,
2013-02-14 05:11:00,13.0,11.0,-100.00,WNW,292,0.0,1.0,91,0.00,,,-99.99,,2013-02-14 12:11:00,
2013-02-14 05:22:00,14.0,12.0,-100.00,NNW,337,0.0,0.0,91,0.00,,,-99.99,,2013-02-14 12:22:00,
2013-02-14 05:32:00,14.0,12.0,-100.00,SE,126,0.0,1.0,92,0.00,,,-99.99,,2013-02-14 12:32:00,
2013-02-14 05:42:00,15.0,13.0,-100.00,South,185,0.0,2.0,93,0.00,,,-99.99,,2013-02-14 12:42:00,
2013-02-14 05:53:00,15.0,13.0,-100.00,South,185,0.0,2.0,93,0.00,,,-99.99,,2013-02-14 12:53:00,
2013-02-14 06:01:00,15.0,14.0,-100.00,SE,130,0.0,1.0,95,0.00,,,-99.99,,2013-02-14 13:01:00,
2013-02-14 06:11:00,15.0,14.0,-100.00,SE,133,0.0,0.0,94,0.00,,,-99.99,,2013-02-14 13:11:00,
2013-02-14 06:21:00,15.0,14.0,-100.00,SE,133,0.0,0.0,94,0.00,,,-99.99,,2013-02-14 13:21:00,
2013-02-14 06:31:00,15.0,14.0,-100.00,WNW,292,0.0,1.0,94,0.00,,,-99.99,,2013-02-14 13:31:00,
2013-02-14 06:41:00,15.0,14.0,-100.00,NW,306,2.0,3.0,95,0.00,,,-99.99,,2013-02-14 13:41:00,
2013-02-14 06:52:00,15.0,14.0,-100.00,NW,306,2.0,3.0,95,0.00,,,-99.99,,2013-02-14 13:52:00,
2013-02-14 07:01:00,15.0,14.0,-100.00,WNW,298,1.0,3.0,95,0.00,,,-99.99,,2013-02-14 14:01:00,
2013-02-14 07:11:00,15.0,14.0,-100.00,NNW,337,0.0,0.0,95,0.00,,,-99.99,,2013-02-14 14:11:00,
2013-02-14 07:21:00,15.0,14.0,-100.00,NNW,337,0.0,0.0,95,0.00,,,-99.99,,2013-02-14 14:21:00,
2013-02-14 07:31:00,16.0,15.0,-100.00,North,-999,0.0,0.0,96,0.00,,,-99.99,,2013-02-14 14:31:00,
2013-02-14 07:41:00,16.0,15.0,-100.00,North,-999,0.0,0.0,96,0.00,,,-99.99,,2013-02-14 14:41:00,
2013-02-14 07:52:00,17.0,16.0,-100.00,West,273,0.0,0.0,96,0.00,,,-99.99,,2013-02-14 14:52:00,
2013-02-14 08:01:00,18.0,17.0,-100.00,North,-999,0.0,0.0,96,0.00,,,-99.99,,2013-02-14 15:01:00,
2013-02-14 08:11:00,18.0,17.0,-100.00,NNE,22,0.0,0.0,96,0.00,,,-99.99,,2013-02-14 15:11:00,
2013-02-14 08:21:00,18.0,17.0,-100.00,NNE,22,0.0,0.0,96,0.00,,,-99.99,,2013-02-14 15:21:00,
2013-02-14 08:31:00,18.0,17.0,-100.00,West,267,2.0,4.0,95,0.00,,,-99.99,,2013-02-14 15:31:00,
2013-02-14 08:41:00,18.0,17.0,-100.00,West,267,2.0,4.0,95,0.00,,,-99.99,,2013-02-14 15:41:00,
2013-02-14 08:52:00,19.0,18.0,-100.00,WNW,288,4.0,6.0,96,0.00,,,-99.99,,2013-02-14 15:52:00,
2013-02-14 09:01:00,20.0,19.0,-100.00,WNW,289,4.0,6.0,96,0.00,,,-99.99,,2013-02-14 16:01:00,
2013-02-14 09:11:00,21.0,19.0,-100.00,WNW,290,6.0,10.0,93,0.00,,,-99.99,,2013-02-14 16:11:00,
2013-02-14 09:21:00,21.0,19.0,-100.00,WNW,290,6.0,10.0,93,0.00,,,-99.99,,2013-02-14 16:21:00,
2013-02-14 09:32:00,22.0,20.0,-100.00,NW,307,7.0,13.0,90,0.00,,,-99.99,,2013-02-14 16:32:00,
2013-02-14 09:41:00,22.0,20.0,-100.00,NW,307,7.0,13.0,90,0.00,,,-99.99,,2013-02-14 16:41:00,
2013-02-14 09:52:00,23.0,20.0,-100.00,NNW,327,10.0,16.0,87,0.00,,,-99.99,,2013-02-14 16:52:00,
2013-02-14 10:01:00,25.0,18.0,-100.00,NW,319,11.0,19.0,73,0.00,,,-99.99,,2013-02-14 17:01:00,
2013-02-14 10:11:00,28.0,21.0,-100.00,NW,315,12.0,17.0,75,0.00,,,-99.99,,2013-02-14 17:11:00,
2013-02-14 10:21:00,28.0,21.0,-100.00,NW,315,12.0,17.0,75,0.00,,,-99.99,,2013-02-14 17:21:00,
2013-02-14 10:31:00,28.0,19.0,-100.00,NW,320,11.0,17.0,68,0.00,,,-99.99,,2013-02-14 17:31:00,
2013-02-14 10:41:00,28.0,19.0,-100.00,NW,320,11.0,17.0,68,0.00,,,-99.99,,2013-02-14 17:41:00,
2013-02-14 10:52:00,28.0,21.0,-100.00,NW,318,12.0,18.0,75,0.00,,,-99.99,,2013-02-14 17:52:00,
2013-02-14 11:01:00,27.0,19.0,-100.00,NW,320,11.0,17.0,71,0.00,,,-99.99,,2013-02-14 18:01:00,
2013-02-14 11:11:00,27.0,19.0,-100.00,NW,320,11.0,17.0,71,0.00,,,-99.99,,2013-02-14 18:11:00,
2013-02-14 11:22:00,27.0,18.0,-100.00,NNW,330,8.0,16.0,69,0.00,,,-99.99,,2013-02-14 18:22:00,
2013-02-14 11:32:00,27.0,18.0,-100.00,NNW,337,8.0,16.0,69,0.00,,,-99.99,,2013-02-14 18:32:00,
2013-02-14 11:41:00,27.0,18.0,-100.00,NNW,337,8.0,16.0,69,0.00,,,-99.99,,2013-02-14 18:41:00,
2013-02-14 11:52:00,27.0,20.0,-100.00,NNW,328,10.0,16.0,74,0.00,,,-99.99,,2013-02-14 18:52:00,
2013-02-14 12:02:00,27.0,19.0,-100.00,NNW,327,12.0,20.0,70,0.00,,,-99.99,,2013-02-14 19:02:00,
2013-02-14 12:11:00,27.0,20.0,-100.00,NW,325,9.0,18.0,74,0.00,,,-99.99,,2013-02-14 19:11:00,
2013-02-14 12:21:00,27.0,20.0,-100.00,NW,325,9.0,18.0,74,0.00,,,-99.99,,2013-02-14 19:21:00,
2013-02-14 12:31:00,27.0,19.0,-100.00,NW,322,12.0,20.0,70,0.00,,,-99.99,,2013-02-14 19:31:00,
2013-02-14 12:41:00,27.0,19.0,-100.00,NW,322,12.0,20.0,70,0.00,,,-99.99,,2013-02-14 19:41:00,
2013-02-14 12:51:00,27.0,21.0,-100.00,NW,322,11.0,19.0,78,0.00,,,-99.99,,2013-02-14 19:51:00,
2013-02-14 13:01:00,25.0,17.0,-100.00,NW,316,13.0,25.0,70,0.00,,,-99.99,,2013-02-14 20:01:00,
2013-02-14 13:11:00,26.0,18.0,-100.00,NW,317,11.0,24.0,70,0.00,,,-99.99,,2013-02-14 20:11:00,
2013-02-14 13:21:00,26.0,18.0,-100.00,NW,317,11.0,24.0,70,0.00,,,-99.99,,2013-02-14 20:21:00,
2013-02-14 13:31:00,27.0,18.0,-100.00,NW,325,14.0,20.0,68,0.00,,,-99.99,,2013-02-14 20:31:00,
2013-02-14 13:41:00,27.0,18.0,-100.00,NW,325,14.0,20.0,68,0.00,,,-99.99,,2013-02-14 20:41:00,
2013-02-14 13:52:00,27.0,19.0,-100.00,NNW,333,13.0,26.0,70,0.00,,,-99.99,,2013-02-14 20:52:00,
2013-02-14 14:02:00,28.0,19.0,-100.00,NW,325,12.0,19.0,69,0.00,,,-99.99,,2013-02-14 21:02:00,
2013-02-14 14:11:00,28.0,19.0,-100.00,NW,325,12.0,19.0,69,0.00,,,-99.99,,2013-02-14 21:11:00,
2013-02-14 14:21:00,28.0,18.0,-100.00,NW,321,13.0,23.0,66,0.00,,,-99.99,,2013-02-14 21:21:00,
2013-02-14 14:31:00,26.0,18.0,-100.00,NNW,327,12.0,17.0,72,0.00,,,-99.99,,2013-02-14 21:31:00,
2013-02-14 14:41:00,26.0,18.0,-100.00,NNW,327,12.0,17.0,72,0.00,,,-99.99,,2013-02-14 21:41:00,
2013-02-14 14:52:00,25.0,17.0,-100.00,NNW,327,14.0,22.0,70,0.00,,,-99.99,,2013-02-14 21:52:00,
2013-02-14 15:02:00,23.0,15.0,-100.00,NNW,327,15.0,22.0,71,0.00,,,-99.99,,2013-02-14 22:02:00,
2013-02-14 15:11:00,23.0,14.0,-100.00,NW,324,11.0,17.0,69,0.00,,,-99.99,,2013-02-14 22:11:00,
2013-02-14 15:21:00,23.0,14.0,-100.00,NW,324,11.0,17.0,69,0.00,,,-99.99,,2013-02-14 22:21:00,
2013-02-14 15:31:00,22.0,16.0,-100.00,NW,324,11.0,16.0,77,0.00,,,-99.99,,2013-02-14 22:31:00,
2013-02-14 15:41:00,22.0,16.0,-100.00,NW,324,11.0,16.0,77,0.00,,,-99.99,,2013-02-14 22:41:00,
2013-02-14 15:52:00,22.0,13.0,-100.00,NW,317,11.0,17.0,67,0.00,,,-99.99,,2013-02-14 22:52:00,
2013-02-14 16:01:00,22.0,13.0,-100.00,NNW,327,13.0,21.0,67,0.00,,,-99.99,,2013-02-14 23:01:00,
2013-02-14 16:11:00,22.0,13.0,-100.00,NNW,327,13.0,21.0,67,0.00,,,-99.99,,2013-02-14 23:11:00,
2013-02-14 16:21:00,21.0,13.0,-100.00,NNW,333,10.0,16.0,71,0.00,,,-99.99,,2013-02-14 23:21:00,
2013-02-14 16:31:00,21.0,14.0,-100.00,NNW,330,10.0,17.0,73,0.00,,,-99.99,,2013-02-14 23:31:00,
2013-02-14 16:41:00,21.0,14.0,-100.00,NNW,330,10.0,17.0,73,0.00,,,-99.99,,2013-02-14 23:41:00,
2013-02-14 16:52:00,20.0,13.0,-100.00,NW,310,9.0,15.0,73,0.00,,,-99.99,,2013-02-14 23:52:00,
2013-02-14 17:01:00,20.0,13.0,-100.00,NW,326,9.0,15.0,75,0.00,,,-99.99,,2013-02-15 00:01:00,
2013-02-14 17:11:00,20.0,13.0,-100.00,NW,326,9.0,15.0,75,0.00,,,-99.99,,2013-02-15 00:11:00,
2013-02-14 17:21:00,20.0,12.0,-100.00,NW,316,8.0,13.0,72,0.00,,,-99.99,,2013-02-15 00:21:00,
2013-02-14 17:31:00,19.0,13.0,-100.00,NW,308,7.0,11.0,76,0.00,,,-99.99,,2013-02-15 00:31:00,
2013-02-14 17:41:00,19.0,13.0,-100.00,NW,308,7.0,11.0,76,0.00,,,-99.99,,2013-02-15 00:41:00,
2013-02-14 17:52:00,18.0,12.0,-100.00,WNW,294,8.0,13.0,77,0.00,,,-99.99,,2013-02-15 00:52:00,
2013-02-14 18:02:00,18.0,12.0,-100.00,WNW,301,6.0,13.0,77,0.00,,,-99.99,,2013-02-15 01:02:00,
2013-02-14 18:11:00,18.0,12.0,-100.00,WNW,301,6.0,13.0,77,0.00,,,-99.99,,2013-02-15 01:11:00,
2013-02-14 18:21:00,17.0,11.0,-100.00,WNW,284,7.0,11.0,76,0.00,,,-99.99,,2013-02-15 01:21:00,
2013-02-14 18:31:00,17.0,11.0,-100.00,WNW,300,7.0,10.0,78,0.00,,,-99.99,,2013-02-15 01:31:00,
2013-02-14 18:41:00,17.0,11.0,-100.00,WNW,300,7.0,10.0,78,0.00,,,-99.99,,2013-02-15 01:41:00,
2013-02-14 18:51:00,16.0,10.0,-100.00,NW,311,4.0,7.0,76,0.00,,,-99.99,,2013-02-15 01:51:00,
2013-02-14 19:01:00,15.0,9.0,-100.00,NW,319,4.0,6.0,76,0.00,,,-99.99,,2013-02-15 02:01:00,
2013-02-14 19:11:00,14.0,9.0,-100.00,NW,325,3.0,5.0,80,0.00,,,-99.99,,2013-02-15 02:11:00,
2013-02-14 19:21:00,14.0,9.0,-100.00,NW,325,3.0,5.0,80,0.00,,,-99.99,,2013-02-15 02:21:00,
2013-02-14 19:31:00,13.0,7.0,-100.00,WNW,285,0.0,2.0,77,0.00,,,-99.99,,2013-02-15 02:31:00,
2013-02-14 19:41:00,13.0,7.0,-100.00,WNW,285,0.0,2.0,77,0.00,,,-99.99,,2013-02-15 02:41:00,
2013-02-14 19:52:00,13.0,7.0,-100.00,NNW,337,0.0,1.0,78,0.00,,,-99.99,,2013-02-15 02:52:00,
2013-02-14 20:02:00,12.0,7.0,-100.00,NNW,337,1.0,2.0,81,0.00,,,-99.99,,2013-02-15 03:02:00,
2013-02-14 20:11:00,11.0,6.0,-100.00,NNW,337,1.0,3.0,80,0.00,,,-99.99,,2013-02-15 03:11:00,
2013-02-14 20:22:00,11.0,6.0,-100.00,NNW,337,1.0,3.0,80,0.00,,,-99.99,,2013-02-15 03:22:00,
2013-02-14 20:32:00,13.0,9.0,-100.00,NNW,337,2.0,3.0,82,0.00,,,-99.99,,2013-02-15 03:32:00,
2013-02-14 20:42:00,13.0,9.0,-100.00,NNW,337,2.0,3.0,82,0.00,,,-99.99,,2013-02-15 03:42:00,
2013-02-14 20:51:00,13.0,9.0,-100.00,NNW,337,1.0,3.0,82,0.00,,,-99.99,,2013-02-15 03:51:00,
2013-02-14 21:01:00,13.0,9.0,-100.00,North,-999,0.0,1.0,82,0.00,,,-99.99,,2013-02-15 04:01:00,
2013-02-14 21:11:00,13.0,8.0,-100.00,North,-999,0.0,0.0,81,0.00,,,-99.99,,2013-02-15 04:11:00,
2013-02-14 21:21:00,13.0,8.0,-100.00,North,-999,0.0,0.0,81,0.00,,,-99.99,,2013-02-15 04:21:00,
2013-02-14 21:32:00,13.0,9.0,-100.00,North,-999,2.0,3.0,82,0.00,,,-99.99,,2013-02-15 04:32:00,
2013-02-14 21:42:00,13.0,9.0,-100.00,North,-999,2.0,3.0,82,0.00,,,-99.99,,2013-02-15 04:42:00,
2013-02-14 21:52:00,15.0,11.0,-100.00,WNW,292,1.0,2.0,83,0.00,,,-99.99,,2013-02-15 04:52:00,
2013-02-14 22:02:00,14.0,10.0,-100.00,North,-999,1.0,3.0,83,0.00,,,-99.99,,2013-02-15 05:02:00,
2013-02-14 22:11:00,14.0,10.0,-100.00,North,-999,1.0,3.0,83,0.00,,,-99.99,,2013-02-15 05:11:00,
2013-02-14 22:22:00,15.0,11.0,-100.00,West,278,3.0,3.0,83,0.00,,,-99.99,,2013-02-15 05:22:00,
2013-02-14 22:32:00,14.0,11.0,-100.00,NNW,337,2.0,3.0,87,0.00,,,-99.99,,2013-02-15 05:32:00,
2013-02-14 22:41:00,14.0,11.0,-100.00,NNW,337,2.0,3.0,87,0.00,,,-99.99,,2013-02-15 05:41:00,
2013-02-14 22:52:00,14.0,11.0,-100.00,NNW,337,1.0,3.0,88,0.00,,,-99.99,,2013-02-15 05:52:00,
2013-02-14 23:02:00,14.0,11.0,-100.00,NW,313,1.0,2.0,88,0.00,,,-99.99,,2013-02-15 06:02:00,
2013-02-14 23:11:00,15.0,14.0,-100.00,NW,315,6.0,10.0,94,0.00,,,-99.99,,2013-02-15 06:11:00,
2013-02-14 23:21:00,15.0,14.0,-100.00,NW,315,6.0,10.0,94,0.00,,,-99.99,,2013-02-15 06:21:00,
2013-02-14 23:31:00,16.0,15.0,-100.00,WNW,302,5.0,8.0,96,0.00,,,-99.99,,2013-02-15 06:31:00,
2013-02-14 23:42:00,16.0,15.0,-100.00,WNW,302,5.0,8.0,96,0.00,,,-99.99,,2013-02-15 06:42:00,
2013-02-14 23:52:00,16.0,15.0,-100.00,West,281,5.0,9.0,96,0.00,,,-99.99,,2013-02-15 06:52:00,